createdAt,value
2023-03-16T00:00:52.496Z,4.38
2023-03-16T00:03:21.256Z,4.35
2023-03-16T00:05:53.609Z,4.47
2023-03-16T00:08:20.672Z,4.88
2023-03-16T00:10:47.583Z,6.22
2023-03-16T00:13:15.248Z,6.13
2023-03-16T00:15:42.667Z,6.25
2023-03-16T00:18:09.262Z,5.03
2023-03-16T00:20:36.133Z,5.72
2023-03-16T00:23:02.700Z,5.22
2023-03-16T00:25:29.809Z,5.75
2023-03-16T00:27:56.404Z,4.22
2023-03-16T00:30:22.994Z,4.55
2023-03-16T00:32:54.051Z,4.50
2023-03-16T00:35:21.711Z,4.50
2023-03-16T00:37:48.397Z,5.05
2023-03-16T00:40:16.195Z,4.28
2023-03-16T00:42:42.841Z,4.35
2023-03-16T00:45:10.319Z,3.58
2023-03-16T00:47:36.993Z,3.58
2023-03-16T00:50:03.817Z,4.13
2023-03-16T00:52:30.470Z,3.45
2023-03-16T00:54:57.295Z,3.85
2023-03-16T00:57:25.945Z,3.17
2023-03-16T00:59:52.796Z,3.42
2023-03-16T01:02:23.624Z,3.17
2023-03-16T01:04:51.895Z,3.42
2023-03-16T01:07:18.579Z,3.40
2023-03-16T01:09:45.152Z,3.58
2023-03-16T01:12:17.466Z,3.20
2023-03-16T01:14:46.011Z,3.38
2023-03-16T01:17:14.042Z,3.83
2023-03-16T01:19:41.678Z,3.78
2023-03-16T01:22:09.960Z,3.53
2023-03-16T01:24:37.159Z,3.83
2023-03-16T01:27:04.755Z,3.78
2023-03-16T01:29:32.042Z,3.45
2023-03-16T01:31:59.038Z,3.80
2023-03-16T01:34:25.795Z,3.28
2023-03-16T01:36:52.537Z,3.35
2023-03-16T01:39:19.143Z,3.53
2023-03-16T01:41:46.785Z,2.55
2023-03-16T01:44:24.390Z,2.78
2023-03-16T01:46:51.269Z,2.90
2023-03-16T01:49:21.388Z,3.10
2023-03-16T01:52:09.380Z,2.75
2023-03-16T01:54:52.826Z,3.08
2023-03-16T01:57:42.879Z,3.38
2023-03-16T02:00:20.469Z,3.67
2023-03-16T02:02:52.207Z,2.78
2023-03-16T02:05:28.770Z,2.80
2023-03-16T02:07:58.968Z,3.10
2023-03-16T02:10:28.885Z,2.55
2023-03-16T02:12:56.088Z,2.58
2023-03-16T02:15:22.995Z,2.38
2023-03-16T02:17:50.440Z,2.85
2023-03-16T02:20:35.682Z,3.10
2023-03-16T02:23:04.417Z,3.20
2023-03-16T02:25:52.216Z,3.30
2023-03-16T02:28:35.004Z,3.10
2023-03-16T02:31:02.595Z,3.03
2023-03-16T02:33:31.684Z,3.35
2023-03-16T02:35:58.445Z,2.92
2023-03-16T02:38:25.267Z,2.80
2023-03-16T02:41:01.638Z,2.92
2023-03-16T02:43:34.927Z,3.03
2023-03-16T02:46:06.204Z,3.22
2023-03-16T02:48:57.985Z,3.20
2023-03-16T02:51:24.571Z,2.90
2023-03-16T02:53:51.107Z,3.25
2023-03-16T02:56:17.776Z,3.00
2023-03-16T02:58:44.343Z,2.83
2023-03-16T03:01:11.520Z,3.30
2023-03-16T03:03:38.182Z,2.63
2023-03-16T03:06:05.006Z,2.72
2023-03-16T03:08:33.296Z,3.47
2023-03-16T03:11:00.058Z,3.33
2023-03-16T03:13:26.660Z,2.45
2023-03-16T03:15:53.638Z,2.67
2023-03-16T03:18:20.225Z,2.95
2023-03-16T03:20:46.892Z,2.83
2023-03-16T03:23:15.392Z,2.75
2023-03-16T03:25:42.458Z,3.10
2023-03-16T03:28:09.266Z,2.70
2023-03-16T03:30:36.048Z,3.33
2023-03-16T03:33:03.012Z,3.50
2023-03-16T03:35:29.646Z,3.10
2023-03-16T03:37:56.268Z,3.05
2023-03-16T03:40:23.243Z,3.78
2023-03-16T03:42:49.879Z,3.30
2023-03-16T03:45:16.698Z,3.80
2023-03-16T03:47:44.372Z,3.65
2023-03-16T03:50:12.460Z,3.45
2023-03-16T03:52:39.088Z,3.53
2023-03-16T03:55:06.241Z,3.53
2023-03-16T03:57:33.052Z,3.83
2023-03-16T03:59:59.682Z,3.50
2023-03-16T04:02:26.359Z,3.80
2023-03-16T04:04:53.056Z,3.47
2023-03-16T04:07:19.663Z,3.70
2023-03-16T04:09:46.231Z,3.45
2023-03-16T04:12:13.815Z,4.10
2023-03-16T04:14:40.400Z,3.92
2023-03-16T04:17:07.452Z,3.40
2023-03-16T04:19:34.093Z,3.63
2023-03-16T04:22:00.707Z,3.50
2023-03-16T04:24:30.290Z,3.60
2023-03-16T04:26:56.871Z,3.33
2023-03-16T04:29:25.487Z,3.40
2023-03-16T04:31:53.850Z,3.30
2023-03-16T04:34:24.917Z,3.72
2023-03-16T04:36:54.616Z,3.30
2023-03-16T04:39:21.586Z,3.42
2023-03-16T04:41:49.224Z,3.55
2023-03-16T04:44:16.032Z,4.43
2023-03-16T04:46:42.720Z,3.15
2023-03-16T04:49:09.942Z,3.65
2023-03-16T04:51:37.990Z,4.03
2023-03-16T04:54:05.164Z,3.63
2023-03-16T04:56:31.859Z,4.10
2023-03-16T04:58:58.447Z,4.38
2023-03-16T05:01:25.290Z,3.58
2023-03-16T05:03:52.927Z,3.90
2023-03-16T05:06:19.784Z,3.95
2023-03-16T05:08:46.438Z,4.35
2023-03-16T05:11:12.996Z,3.90
2023-03-16T05:13:39.675Z,4.30
2023-03-16T05:16:07.248Z,4.00
2023-03-16T05:18:34.091Z,4.60
2023-03-16T05:21:00.670Z,4.20
2023-03-16T05:23:27.285Z,3.70
2023-03-16T05:25:53.878Z,3.83
2023-03-16T05:28:20.444Z,4.18
2023-03-16T05:30:47.084Z,4.07
2023-03-16T05:33:13.731Z,3.58
2023-03-16T05:35:40.494Z,3.55
2023-03-16T05:38:08.690Z,4.63
2023-03-16T05:40:35.743Z,3.85
2023-03-16T05:43:02.365Z,4.07
2023-03-16T05:45:29.065Z,3.85
2023-03-16T05:47:55.928Z,4.80
2023-03-16T05:50:23.227Z,4.97
2023-03-16T05:52:49.769Z,5.15
2023-03-16T05:55:18.585Z,4.80
2023-03-16T05:57:45.269Z,4.75
2023-03-16T06:00:18.241Z,4.45
2023-03-16T06:02:49.832Z,5.77
2023-03-16T06:05:17.868Z,4.78
2023-03-16T06:07:44.975Z,5.55
2023-03-16T06:10:12.784Z,6.70
2023-03-16T06:12:39.851Z,9.00
2023-03-16T06:15:07.943Z,9.48
2023-03-16T06:17:38.498Z,7.15
2023-03-16T06:20:11.096Z,6.25
2023-03-16T06:22:41.717Z,5.30
2023-03-16T06:25:10.336Z,4.13
2023-03-16T06:27:37.080Z,4.50
2023-03-16T06:30:04.787Z,4.30
2023-03-16T06:32:31.884Z,5.43
2023-03-16T06:35:02.092Z,5.05
2023-03-16T06:37:29.473Z,5.20
2023-03-16T06:39:56.258Z,5.07
2023-03-16T06:42:23.952Z,4.88
2023-03-16T06:44:52.746Z,5.05
2023-03-16T06:47:19.910Z,5.43
2023-03-16T06:49:51.781Z,5.47
2023-03-16T06:52:18.421Z,5.40
2023-03-16T06:54:45.041Z,5.13
2023-03-16T06:57:11.738Z,5.13
2023-03-16T06:59:39.217Z,5.47
2023-03-16T07:02:07.248Z,5.00
2023-03-16T07:04:34.193Z,5.07
2023-03-16T07:07:01.489Z,5.68
2023-03-16T07:09:29.291Z,5.07
2023-03-16T07:11:55.982Z,5.20
2023-03-16T07:14:24.773Z,5.57
2023-03-16T07:16:52.861Z,4.72
2023-03-16T07:19:21.198Z,5.13
2023-03-16T07:21:47.783Z,5.60
2023-03-16T07:24:16.228Z,5.80
2023-03-16T07:26:43.375Z,4.63
2023-03-16T07:29:10.089Z,4.93
2023-03-16T07:31:36.796Z,4.47
2023-03-16T07:34:04.447Z,5.60
2023-03-16T07:36:31.513Z,5.07
2023-03-16T07:38:58.526Z,4.13
2023-03-16T07:41:25.586Z,5.28
2023-03-16T07:43:53.449Z,4.97
2023-03-16T07:46:20.355Z,4.70
2023-03-16T07:48:47.039Z,5.03
2023-03-16T07:51:14.181Z,4.90
2023-03-16T07:53:41.683Z,4.47
2023-03-16T07:56:08.802Z,5.15
2023-03-16T07:58:35.406Z,5.10
2023-03-16T08:01:02.227Z,5.20
2023-03-16T08:03:29.669Z,4.53
2023-03-16T08:05:56.390Z,4.82
2023-03-16T08:08:23.038Z,4.85
2023-03-16T08:10:52.748Z,5.55
2023-03-16T08:13:20.509Z,4.25
2023-03-16T08:15:58.338Z,4.97
2023-03-16T08:18:34.839Z,4.90
2023-03-16T08:21:01.383Z,5.03
2023-03-16T08:23:29.456Z,5.00
2023-03-16T08:25:57.570Z,4.55
2023-03-16T08:28:25.973Z,5.20
2023-03-16T08:30:54.268Z,4.90
2023-03-16T08:33:23.407Z,4.25
2023-03-16T08:35:50.834Z,4.38
2023-03-16T08:38:19.255Z,4.40
2023-03-16T08:40:50.341Z,4.45
2023-03-16T08:43:19.071Z,4.25
2023-03-16T08:45:46.805Z,4.63
2023-03-16T08:48:14.357Z,4.40
2023-03-16T08:50:43.308Z,3.72
2023-03-16T08:53:12.037Z,3.67
2023-03-16T08:55:38.604Z,3.70
2023-03-16T08:58:05.280Z,3.90
2023-03-16T09:00:31.891Z,3.70
2023-03-16T09:02:58.957Z,4.15
2023-03-16T09:05:25.809Z,3.78
2023-03-16T09:07:54.165Z,3.60
2023-03-16T09:10:23.157Z,3.95
2023-03-16T09:12:52.184Z,3.53
2023-03-16T09:15:20.849Z,3.50
2023-03-16T09:17:48.658Z,3.72
2023-03-16T09:20:26.844Z,3.33
2023-03-16T09:22:57.031Z,3.15
2023-03-16T09:25:25.509Z,3.65
2023-03-16T09:27:52.763Z,2.75
2023-03-16T09:30:19.916Z,2.90
2023-03-16T09:32:49.065Z,3.20
2023-03-16T09:35:16.101Z,3.25
2023-03-16T09:38:04.789Z,3.28
2023-03-16T09:40:30.853Z,2.60
2023-03-16T09:43:07.234Z,2.40
2023-03-16T09:46:12.180Z,2.53
2023-03-16T09:48:41.132Z,2.10
2023-03-16T09:51:18.519Z,1.90
2023-03-16T09:53:47.275Z,1.80
2023-03-16T09:56:33.917Z,2.03
2023-03-16T09:59:01.188Z,2.28
2023-03-16T10:01:48.412Z,2.08
2023-03-16T10:04:44.329Z,1.98
2023-03-16T10:07:22.211Z,2.30
2023-03-16T10:09:54.030Z,2.63
2023-03-16T10:12:21.901Z,2.38
2023-03-16T10:15:08.495Z,2.40
2023-03-16T10:17:50.757Z,2.42
2023-03-16T10:20:20.741Z,2.65
2023-03-16T10:22:49.456Z,2.15
2023-03-16T10:25:23.666Z,1.90
2023-03-16T10:27:50.923Z,2.30
2023-03-16T10:30:34.173Z,2.20
2023-03-16T10:33:03.618Z,1.60
2023-03-16T10:35:36.103Z,1.80
2023-03-16T10:38:02.719Z,1.88
2023-03-16T10:40:37.428Z,2.53
2023-03-16T10:43:14.065Z,1.83
2023-03-16T10:45:47.235Z,2.22
2023-03-16T10:48:17.368Z,1.77
2023-03-16T10:50:44.686Z,2.13
2023-03-16T10:53:18.588Z,1.80
2023-03-16T10:58:25.271Z,1.80
2023-03-16T11:00:53.757Z,2.00
2023-03-16T11:03:31.610Z,2.03
2023-03-16T11:06:17.970Z,1.88
2023-03-16T11:08:45.357Z,1.85
2023-03-16T11:11:18.670Z,1.75
2023-03-16T11:13:49.015Z,2.00
2023-03-16T11:17:04.425Z,1.90
2023-03-16T11:19:38.795Z,2.05
2023-03-16T11:22:17.734Z,2.35
2023-03-16T11:24:52.862Z,2.33
2023-03-16T11:27:34.000Z,2.45
2023-03-16T11:30:14.804Z,2.00
2023-03-16T11:32:47.197Z,2.10
2023-03-16T11:35:20.661Z,2.17
2023-03-16T11:38:16.416Z,1.80
2023-03-16T11:41:00.315Z,2.17
2023-03-16T11:44:15.643Z,2.25
2023-03-16T11:46:45.953Z,2.00
2023-03-16T11:49:12.510Z,2.20
2023-03-16T11:51:59.011Z,1.90
2023-03-16T11:54:34.484Z,1.85
2023-03-16T11:57:10.155Z,1.92
2023-03-16T12:00:04.471Z,1.77
2023-03-16T12:02:57.902Z,2.40
2023-03-16T12:05:33.486Z,1.70
2023-03-16T12:08:05.920Z,1.90
2023-03-16T12:10:45.949Z,1.92
2023-03-16T12:13:30.579Z,2.00
2023-03-16T12:16:02.966Z,1.70
2023-03-16T12:18:53.450Z,1.65
2023-03-16T12:21:34.044Z,1.73
2023-03-16T12:24:03.498Z,1.90
2023-03-16T12:26:35.827Z,1.70
2023-03-16T12:29:14.348Z,1.45
2023-03-16T12:31:55.884Z,1.70
2023-03-16T12:34:32.373Z,1.60
2023-03-16T12:37:23.532Z,1.60
2023-03-16T12:40:10.149Z,2.25
2023-03-16T12:42:52.222Z,1.67
2023-03-16T12:45:42.111Z,1.50
2023-03-16T12:48:32.568Z,1.60
2023-03-16T12:51:01.933Z,1.30
2023-03-16T12:53:51.941Z,1.15
2023-03-16T12:56:49.024Z,1.48
2023-03-16T12:59:19.726Z,1.70
2023-03-16T13:01:51.723Z,1.60
2023-03-16T13:04:21.806Z,1.33
2023-03-16T13:06:52.345Z,1.50
2023-03-16T13:09:25.395Z,1.20
2023-03-16T13:11:53.329Z,1.40
2023-03-16T13:14:40.612Z,1.27
2023-03-16T13:17:16.924Z,1.20
2023-03-16T13:20:03.033Z,1.30
2023-03-16T13:22:40.856Z,1.40
2023-03-16T13:25:22.787Z,1.30
2023-03-16T13:27:55.768Z,1.30
2023-03-16T13:30:25.531Z,1.17
2023-03-16T13:33:00.515Z,1.17
2023-03-16T13:35:29.403Z,1.35
2023-03-16T13:38:05.784Z,1.35
2023-03-16T13:40:33.227Z,1.30
2023-03-16T13:43:02.042Z,1.40
2023-03-16T13:45:33.608Z,1.08
2023-03-16T13:48:02.033Z,1.20
2023-03-16T13:50:33.096Z,1.40
2023-03-16T13:53:04.290Z,1.50
2023-03-16T13:55:36.595Z,1.30
2023-03-16T13:58:04.419Z,1.40
2023-03-16T14:00:34.785Z,1.60
2023-03-16T14:03:13.446Z,1.48
2023-03-16T14:05:40.876Z,1.80
2023-03-16T14:08:19.634Z,1.63
2023-03-16T14:10:46.919Z,1.20
2023-03-16T14:13:29.574Z,1.23
2023-03-16T14:16:26.712Z,1.40
2023-03-16T14:19:03.519Z,1.52
2023-03-16T14:21:34.281Z,1.10
2023-03-16T14:24:07.031Z,2.03
2023-03-16T14:26:46.345Z,1.60
2023-03-16T14:29:31.644Z,1.40
2023-03-16T14:32:00.056Z,1.40
2023-03-16T14:34:39.706Z,1.42
2023-03-16T14:37:20.122Z,1.40
2023-03-16T14:39:58.190Z,1.60
2023-03-16T14:42:29.940Z,1.52
2023-03-16T14:45:01.820Z,1.50
2023-03-16T14:47:33.437Z,1.70
2023-03-16T14:50:07.791Z,1.50
2023-03-16T14:52:35.088Z,1.20
2023-03-16T14:55:14.753Z,1.35
2023-03-16T14:57:42.751Z,1.65
2023-03-16T15:00:12.620Z,1.70
2023-03-16T15:02:42.234Z,1.58
2023-03-16T15:05:11.272Z,1.63
2023-03-16T15:07:40.777Z,2.10
2023-03-16T15:10:22.591Z,1.80
2023-03-16T15:12:56.103Z,1.58
2023-03-16T15:15:24.042Z,1.77
2023-03-16T15:17:52.233Z,1.90
2023-03-16T15:20:25.776Z,1.45
2023-03-16T15:22:53.426Z,1.70
2023-03-16T15:25:22.997Z,1.67
2023-03-16T15:27:50.209Z,1.58
2023-03-16T15:30:19.942Z,1.60
2023-03-16T15:32:46.729Z,1.58
2023-03-16T15:35:13.657Z,1.60
2023-03-16T15:37:40.376Z,1.85
2023-03-16T15:40:28.587Z,2.10
2023-03-16T15:42:55.630Z,1.65
2023-03-16T15:45:23.135Z,2.00
2023-03-16T15:47:51.637Z,2.05
2023-03-16T15:50:21.889Z,2.13
2023-03-16T15:52:54.594Z,2.30
2023-03-16T15:55:24.332Z,1.90
2023-03-16T15:57:59.377Z,2.38
2023-03-16T16:00:37.492Z,2.08
2023-03-16T16:03:06.539Z,1.98
2023-03-16T16:05:33.765Z,1.92
2023-03-16T16:08:00.810Z,1.90
2023-03-16T16:10:29.074Z,2.53
2023-03-16T16:12:56.919Z,2.00
2023-03-16T16:15:33.994Z,2.42
2023-03-16T16:18:20.489Z,3.22
2023-03-16T16:20:48.481Z,1.90
2023-03-16T16:23:15.206Z,2.20
2023-03-16T16:25:42.451Z,2.08
2023-03-16T16:28:29.917Z,2.10
2023-03-16T16:30:58.503Z,2.00
2023-03-16T16:33:25.127Z,2.00
2023-03-16T16:35:53.852Z,2.67
2023-03-16T16:38:21.081Z,2.00
2023-03-16T16:40:48.362Z,1.80
2023-03-16T16:43:41.417Z,2.17
2023-03-16T16:46:41.426Z,2.05
2023-03-16T16:49:15.280Z,2.08
2023-03-16T16:51:42.731Z,2.10
2023-03-16T16:54:26.210Z,2.13
2023-03-16T16:56:54.582Z,2.20
2023-03-16T16:59:28.049Z,2.40
2023-03-16T17:01:55.419Z,2.58
2023-03-16T17:04:25.940Z,2.20
2023-03-16T17:07:02.252Z,1.98
2023-03-16T17:09:30.947Z,2.50
2023-03-16T17:12:01.300Z,1.80
2023-03-16T17:14:28.387Z,2.10
2023-03-16T17:16:56.215Z,2.00
2023-03-16T17:19:29.730Z,2.00
2023-03-16T17:21:58.768Z,2.03
2023-03-16T17:24:26.144Z,2.00
2023-03-16T17:26:56.153Z,2.20
2023-03-16T17:29:30.239Z,2.17
2023-03-16T17:32:01.330Z,2.08
2023-03-16T17:34:30.357Z,2.20
2023-03-16T17:36:57.214Z,2.20
2023-03-16T17:39:27.815Z,2.45
2023-03-16T17:41:58.544Z,2.25
2023-03-16T17:44:28.402Z,2.20
2023-03-16T17:46:55.074Z,1.75
2023-03-16T17:49:24.198Z,2.08
2023-03-16T17:51:51.012Z,2.10
2023-03-16T17:54:18.854Z,1.98
2023-03-16T17:56:47.740Z,2.22
2023-03-16T17:59:19.215Z,2.22
2023-03-16T18:01:47.502Z,2.00
2023-03-16T18:04:19.081Z,2.20
2023-03-16T18:06:47.654Z,7.10
2023-03-16T18:09:16.008Z,8.40
2023-03-16T18:11:48.030Z,7.05
2023-03-16T18:14:39.922Z,26.20
2023-03-16T18:17:24.919Z,36.08
2023-03-16T18:19:51.916Z,35.80
2023-03-16T18:22:22.516Z,28.17
2023-03-16T18:24:50.701Z,18.10
2023-03-16T18:27:17.646Z,13.48
2023-03-16T18:29:45.925Z,9.13
2023-03-16T18:32:27.528Z,6.88
2023-03-16T18:34:54.941Z,4.70
2023-03-16T18:37:28.216Z,3.85
2023-03-16T18:39:56.317Z,3.05
2023-03-16T18:42:26.269Z,2.88
2023-03-16T18:44:54.056Z,2.72
2023-03-16T18:47:24.008Z,2.20
2023-03-16T18:49:54.488Z,2.58
2023-03-16T18:52:25.217Z,2.35
2023-03-16T18:54:53.420Z,2.78
2023-03-16T18:57:31.955Z,2.78
2023-03-16T18:59:58.518Z,2.50
2023-03-16T19:02:36.170Z,2.33
2023-03-16T19:05:11.722Z,2.00
2023-03-16T19:07:42.903Z,2.40
2023-03-16T19:10:28.785Z,2.53
2023-03-16T19:12:56.306Z,2.50
2023-03-16T19:15:36.688Z,4.95
2023-03-16T19:18:03.714Z,2.78
2023-03-16T19:20:33.374Z,3.20
2023-03-16T19:23:06.900Z,2.90
2023-03-16T19:25:38.858Z,2.80
2023-03-16T19:28:08.380Z,3.40
2023-03-16T19:30:36.369Z,3.60
2023-03-16T19:33:03.539Z,4.20
2023-03-16T19:35:48.611Z,4.00
2023-03-16T19:38:18.521Z,4.80
2023-03-16T19:40:46.716Z,4.43
2023-03-16T19:43:19.649Z,4.25
2023-03-16T19:45:48.426Z,3.70
2023-03-16T19:48:21.521Z,3.45
2023-03-16T19:50:50.543Z,4.13
2023-03-16T19:53:19.760Z,4.13
2023-03-16T19:55:48.438Z,2.55
2023-03-16T19:58:21.242Z,2.38
2023-03-16T20:00:48.010Z,2.40
2023-03-16T20:03:15.162Z,2.35
2023-03-16T20:05:42.177Z,3.10
2023-03-16T20:08:27.095Z,4.43
2023-03-16T20:11:01.773Z,4.75
2023-03-16T20:13:31.634Z,5.00
2023-03-16T20:15:58.740Z,4.50
2023-03-16T20:18:26.015Z,3.70
2023-03-16T20:20:52.944Z,4.35
2023-03-16T20:23:27.227Z,4.38
2023-03-16T20:25:57.490Z,5.32
2023-03-16T20:28:31.005Z,5.47
2023-03-16T20:30:59.616Z,5.97
2023-03-16T20:33:28.952Z,5.80
2023-03-16T20:36:00.057Z,5.15
2023-03-16T20:38:27.671Z,4.80
2023-03-16T20:40:55.028Z,4.32
2023-03-16T20:43:25.784Z,4.53
2023-03-16T20:45:55.851Z,4.38
2023-03-16T20:48:25.664Z,4.32
2023-03-16T20:50:54.785Z,4.40
2023-03-16T20:53:22.743Z,3.75
2023-03-16T20:55:54.622Z,4.30
2023-03-16T20:58:22.903Z,3.60
2023-03-16T21:00:50.963Z,3.70
2023-03-16T21:03:23.705Z,3.58
2023-03-16T21:05:51.804Z,3.45
2023-03-16T21:08:19.686Z,4.07
2023-03-16T21:10:49.967Z,3.33
2023-03-16T21:13:26.027Z,3.60
2023-03-16T21:15:55.088Z,3.35
2023-03-16T21:18:22.251Z,3.28
2023-03-16T21:20:50.182Z,3.33
2023-03-16T21:23:19.921Z,3.40
2023-03-16T21:25:50.528Z,3.58
2023-03-16T21:28:19.306Z,3.38
2023-03-16T21:30:51.292Z,3.78
2023-03-16T21:33:31.504Z,3.63
2023-03-16T21:36:00.320Z,3.60
2023-03-16T21:38:28.759Z,3.85
2023-03-16T21:40:56.052Z,4.10
2023-03-16T21:43:23.301Z,4.05
2023-03-16T21:45:51.855Z,5.30
2023-03-16T21:48:24.221Z,6.20
2023-03-16T21:50:52.407Z,6.07
2023-03-16T21:53:31.801Z,5.63
2023-03-16T21:55:58.778Z,5.10
2023-03-16T21:58:25.449Z,5.47
2023-03-16T22:00:53.937Z,5.30
2023-03-16T22:03:47.996Z,5.57
2023-03-16T22:06:17.157Z,5.60
2023-03-16T22:08:44.038Z,5.63
2023-03-16T22:11:17.167Z,5.70
2023-03-16T22:13:43.801Z,4.70
2023-03-16T22:16:16.034Z,5.00
2023-03-16T22:18:44.710Z,4.30
2023-03-16T22:21:36.423Z,4.20
2023-03-16T22:24:12.762Z,4.40
2023-03-16T22:26:39.622Z,3.78
2023-03-16T22:29:18.353Z,3.60
2023-03-16T22:31:47.030Z,3.20
2023-03-16T22:34:43.391Z,3.63
2023-03-16T22:37:13.774Z,3.40
2023-03-16T22:39:40.507Z,3.63
2023-03-16T22:42:28.153Z,3.55
2023-03-16T22:44:55.815Z,3.47
2023-03-16T22:47:27.722Z,3.42
2023-03-16T22:49:54.670Z,3.60
2023-03-16T22:52:29.381Z,3.10
2023-03-16T22:54:56.961Z,3.40
2023-03-16T22:57:26.374Z,3.03
2023-03-16T22:59:53.035Z,3.35
2023-03-16T23:02:23.744Z,3.10
2023-03-16T23:04:50.399Z,3.38
2023-03-16T23:07:17.028Z,3.42
2023-03-16T23:09:43.828Z,4.20
2023-03-16T23:12:17.313Z,4.00
2023-03-16T23:14:44.282Z,4.40
2023-03-16T23:17:19.137Z,4.07
2023-03-16T23:19:46.270Z,4.57
2023-03-16T23:22:13.357Z,3.65
2023-03-16T23:24:41.131Z,4.15
2023-03-16T23:27:19.371Z,4.13
2023-03-16T23:29:46.800Z,5.28
2023-03-16T23:32:16.869Z,5.47
2023-03-16T23:34:43.486Z,4.28
2023-03-16T23:37:10.232Z,4.38
2023-03-16T23:39:37.036Z,4.20
2023-03-16T23:42:04.286Z,3.85
2023-03-16T23:44:31.445Z,4.28
2023-03-16T23:46:59.658Z,4.05
2023-03-16T23:49:33.038Z,3.70
2023-03-16T23:52:01.498Z,3.92
2023-03-16T23:54:30.966Z,4.32
2023-03-16T23:56:58.041Z,4.18
2023-03-16T23:59:25.789Z,4.18
